sensor_id;sensor_type;location;lat;lon;timestamp;P1;durP1;ratioP1;P2;durP2;ratioP2
12986;SDS011;58897;51.960;5.582;2023-11-19T00:01:05;12.03;;;6.33;;
12986;SDS011;58897;51.960;5.582;2023-11-19T00:03:32;18.10;;;6.80;;
12986;SDS011;58897;51.960;5.582;2023-11-19T00:05:59;18.73;;;6.43;;
12986;SDS011;58897;51.960;5.582;2023-11-19T00:08:27;21.60;;;6.37;;
12986;SDS011;58897;51.960;5.582;2023-11-19T00:10:53;20.40;;;6.50;;
12986;SDS011;58897;51.960;5.582;2023-11-19T00:13:20;16.63;;;5.70;;
12986;SDS011;58897;51.960;5.582;2023-11-19T00:15:46;17.40;;;5.97;;
12986;SDS011;58897;51.960;5.582;2023-11-19T00:18:14;18.30;;;5.63;;
12986;SDS011;58897;51.960;5.582;2023-11-19T00:20:40;13.40;;;5.53;;
12986;SDS011;58897;51.960;5.582;2023-11-19T00:23:07;20.00;;;5.50;;
12986;SDS011;58897;51.960;5.582;2023-11-19T00:25:34;17.30;;;4.90;;
12986;SDS011;58897;51.960;5.582;2023-11-19T00:28:01;18.90;;;5.27;;
12986;SDS011;58897;51.960;5.582;2023-11-19T00:30:27;19.80;;;6.47;;
12986;SDS011;58897;51.960;5.582;2023-11-19T00:32:54;24.13;;;6.47;;
12986;SDS011;58897;51.960;5.582;2023-11-19T00:35:21;14.03;;;4.43;;
12986;SDS011;58897;51.960;5.582;2023-11-19T00:37:47;15.03;;;5.33;;
12986;SDS011;58897;51.960;5.582;2023-11-19T00:40:15;15.37;;;4.70;;
12986;SDS011;58897;51.960;5.582;2023-11-19T00:42:43;21.50;;;5.47;;
12986;SDS011;58897;51.960;5.582;2023-11-19T00:45:13;18.23;;;4.83;;
12986;SDS011;58897;51.960;5.582;2023-11-19T00:47:40;17.20;;;5.20;;
12986;SDS011;58897;51.960;5.582;2023-11-19T00:50:07;16.33;;;4.97;;
12986;SDS011;58897;51.960;5.582;2023-11-19T00:52:36;20.63;;;5.93;;
12986;SDS011;58897;51.960;5.582;2023-11-19T00:55:04;17.73;;;5.00;;
12986;SDS011;58897;51.960;5.582;2023-11-19T00:57:31;21.10;;;5.40;;
12986;SDS011;58897;51.960;5.582;2023-11-19T00:59:59;17.17;;;4.97;;
12986;SDS011;58897;51.960;5.582;2023-11-19T01:02:25;21.60;;;5.70;;
12986;SDS011;58897;51.960;5.582;2023-11-19T01:04:52;21.23;;;4.97;;
12986;SDS011;58897;51.960;5.582;2023-11-19T01:07:19;14.93;;;5.07;;
12986;SDS011;58897;51.960;5.582;2023-11-19T01:09:45;11.07;;;3.70;;
12986;SDS011;58897;51.960;5.582;2023-11-19T01:12:12;15.90;;;4.60;;
12986;SDS011;58897;51.960;5.582;2023-11-19T01:14:39;20.67;;;5.07;;
12986;SDS011;58897;51.960;5.582;2023-11-19T01:17:05;19.97;;;4.77;;
12986;SDS011;58897;51.960;5.582;2023-11-19T01:19:32;19.83;;;4.63;;
12986;SDS011;58897;51.960;5.582;2023-11-19T01:21:59;17.80;;;4.20;;
12986;SDS011;58897;51.960;5.582;2023-11-19T01:24:25;21.20;;;4.97;;
12986;SDS011;58897;51.960;5.582;2023-11-19T01:26:54;15.40;;;4.10;;
12986;SDS011;58897;51.960;5.582;2023-11-19T01:29:21;22.33;;;5.27;;
12986;SDS011;58897;51.960;5.582;2023-11-19T01:31:48;15.20;;;4.20;;
12986;SDS011;58897;51.960;5.582;2023-11-19T01:34:14;19.50;;;4.87;;
12986;SDS011;58897;51.960;5.582;2023-11-19T01:36:41;27.30;;;5.47;;
12986;SDS011;58897;51.960;5.582;2023-11-19T01:39:08;21.93;;;4.40;;
12986;SDS011;58897;51.960;5.582;2023-11-19T01:41:34;19.03;;;4.17;;
12986;SDS011;58897;51.960;5.582;2023-11-19T01:44:02;19.40;;;4.00;;
12986;SDS011;58897;51.960;5.582;2023-11-19T01:46:29;18.70;;;3.47;;
12986;SDS011;58897;51.960;5.582;2023-11-19T01:48:59;22.03;;;4.40;;
12986;SDS011;58897;51.960;5.582;2023-11-19T01:51:26;16.67;;;3.47;;
12986;SDS011;58897;51.960;5.582;2023-11-19T01:53:53;26.67;;;4.20;;
12986;SDS011;58897;51.960;5.582;2023-11-19T01:56:21;20.90;;;3.80;;
12986;SDS011;58897;51.960;5.582;2023-11-19T01:58:49;18.17;;;4.20;;
12986;SDS011;58897;51.960;5.582;2023-11-19T02:01:16;18.23;;;4.13;;
12986;SDS011;58897;51.960;5.582;2023-11-19T02:03:43;14.97;;;4.37;;
12986;SDS011;58897;51.960;5.582;2023-11-19T02:06:10;18.10;;;3.30;;
12986;SDS011;58897;51.960;5.582;2023-11-19T02:08:37;25.80;;;4.27;;
12986;SDS011;58897;51.960;5.582;2023-11-19T02:11:05;24.23;;;4.20;;
12986;SDS011;58897;51.960;5.582;2023-11-19T02:13:33;38.80;;;5.70;;
12986;SDS011;58897;51.960;5.582;2023-11-19T02:16:02;41.13;;;6.03;;
12986;SDS011;58897;51.960;5.582;2023-11-19T02:18:30;22.83;;;4.07;;
12986;SDS011;58897;51.960;5.582;2023-11-19T02:20:57;32.80;;;4.87;;
12986;SDS011;58897;51.960;5.582;2023-11-19T02:23:28;28.63;;;5.37;;
12986;SDS011;58897;51.960;5.582;2023-11-19T02:26:03;22.87;;;3.57;;
12986;SDS011;58897;51.960;5.582;2023-11-19T02:28:40;28.17;;;4.17;;
12986;SDS011;58897;51.960;5.582;2023-11-19T02:31:08;28.73;;;4.87;;
12986;SDS011;58897;51.960;5.582;2023-11-19T02:33:38;33.60;;;5.93;;
12986;SDS011;58897;51.960;5.582;2023-11-19T02:36:05;25.33;;;3.60;;
12986;SDS011;58897;51.960;5.582;2023-11-19T02:38:34;23.03;;;3.97;;
12986;SDS011;58897;51.960;5.582;2023-11-19T02:41:04;26.77;;;4.33;;
12986;SDS011;58897;51.960;5.582;2023-11-19T02:43:32;26.93;;;5.30;;
12986;SDS011;58897;51.960;5.582;2023-11-19T02:46:00;20.50;;;3.43;;
12986;SDS011;58897;51.960;5.582;2023-11-19T02:48:36;22.67;;;4.17;;
12986;SDS011;58897;51.960;5.582;2023-11-19T02:51:03;27.60;;;4.03;;
12986;SDS011;58897;51.960;5.582;2023-11-19T02:53:30;33.77;;;5.93;;
12986;SDS011;58897;51.960;5.582;2023-11-19T02:55:58;22.63;;;3.83;;
12986;SDS011;58897;51.960;5.582;2023-11-19T02:58:31;29.47;;;4.13;;
12986;SDS011;58897;51.960;5.582;2023-11-19T03:00:58;22.33;;;3.90;;
12986;SDS011;58897;51.960;5.582;2023-11-19T03:03:26;35.90;;;6.27;;
12986;SDS011;58897;51.960;5.582;2023-11-19T03:06:05;23.97;;;3.80;;
12986;SDS011;58897;51.960;5.582;2023-11-19T03:08:32;26.53;;;4.30;;
12986;SDS011;58897;51.960;5.582;2023-11-19T03:11:01;33.50;;;4.57;;
12986;SDS011;58897;51.960;5.582;2023-11-19T03:13:28;39.30;;;6.43;;
12986;SDS011;58897;51.960;5.582;2023-11-19T03:15:54;27.07;;;5.33;;
12986;SDS011;58897;51.960;5.582;2023-11-19T03:18:21;30.70;;;4.57;;
12986;SDS011;58897;51.960;5.582;2023-11-19T03:20:47;36.60;;;5.20;;
12986;SDS011;58897;51.960;5.582;2023-11-19T03:23:14;42.80;;;7.03;;
12986;SDS011;58897;51.960;5.582;2023-11-19T03:25:43;29.67;;;3.87;;
12986;SDS011;58897;51.960;5.582;2023-11-19T03:28:12;20.53;;;3.37;;
12986;SDS011;58897;51.960;5.582;2023-11-19T03:30:39;31.57;;;4.50;;
12986;SDS011;58897;51.960;5.582;2023-11-19T03:33:06;25.10;;;4.30;;
12986;SDS011;58897;51.960;5.582;2023-11-19T03:35:32;31.70;;;4.57;;
12986;SDS011;58897;51.960;5.582;2023-11-19T03:37:59;33.13;;;4.97;;
12986;SDS011;58897;51.960;5.582;2023-11-19T03:40:27;32.73;;;5.40;;
12986;SDS011;58897;51.960;5.582;2023-11-19T03:42:57;28.77;;;4.43;;
12986;SDS011;58897;51.960;5.582;2023-11-19T03:45:24;24.50;;;3.80;;
12986;SDS011;58897;51.960;5.582;2023-11-19T03:47:51;28.53;;;4.03;;
12986;SDS011;58897;51.960;5.582;2023-11-19T03:50:18;23.23;;;4.23;;
12986;SDS011;58897;51.960;5.582;2023-11-19T03:52:47;29.47;;;4.53;;
12986;SDS011;58897;51.960;5.582;2023-11-19T03:55:15;36.47;;;4.63;;
12986;SDS011;58897;51.960;5.582;2023-11-19T03:57:42;35.60;;;4.73;;
12986;SDS011;58897;51.960;5.582;2023-11-19T04:00:08;25.97;;;4.43;;
12986;SDS011;58897;51.960;5.582;2023-11-19T04:02:40;32.70;;;4.80;;
12986;SDS011;58897;51.960;5.582;2023-11-19T04:05:08;30.60;;;4.63;;
12986;SDS011;58897;51.960;5.582;2023-11-19T04:07:36;34.43;;;4.97;;
12986;SDS011;58897;51.960;5.582;2023-11-19T04:10:03;22.77;;;4.00;;
12986;SDS011;58897;51.960;5.582;2023-11-19T04:12:30;39.90;;;5.50;;
12986;SDS011;58897;51.960;5.582;2023-11-19T04:14:56;32.30;;;5.30;;
12986;SDS011;58897;51.960;5.582;2023-11-19T04:17:26;34.67;;;4.93;;
12986;SDS011;58897;51.960;5.582;2023-11-19T04:19:52;31.27;;;4.97;;
12986;SDS011;58897;51.960;5.582;2023-11-19T04:22:19;46.33;;;6.30;;
12986;SDS011;58897;51.960;5.582;2023-11-19T04:24:47;28.07;;;4.23;;
12986;SDS011;58897;51.960;5.582;2023-11-19T04:27:14;26.83;;;3.93;;
12986;SDS011;58897;51.960;5.582;2023-11-19T04:29:40;30.43;;;4.20;;
12986;SDS011;58897;51.960;5.582;2023-11-19T04:32:07;32.90;;;4.50;;
12986;SDS011;58897;51.960;5.582;2023-11-19T04:34:34;31.20;;;4.43;;
12986;SDS011;58897;51.960;5.582;2023-11-19T04:37:00;39.73;;;4.33;;
12986;SDS011;58897;51.960;5.582;2023-11-19T04:39:39;35.37;;;5.37;;
12986;SDS011;58897;51.960;5.582;2023-11-19T04:42:05;35.63;;;5.67;;
12986;SDS011;58897;51.960;5.582;2023-11-19T04:44:33;37.87;;;4.80;;
12986;SDS011;58897;51.960;5.582;2023-11-19T04:46:59;31.90;;;4.33;;
12986;SDS011;58897;51.960;5.582;2023-11-19T04:49:27;32.93;;;4.37;;
12986;SDS011;58897;51.960;5.582;2023-11-19T04:51:54;35.13;;;5.13;;
12986;SDS011;58897;51.960;5.582;2023-11-19T04:54:20;26.10;;;4.13;;
12986;SDS011;58897;51.960;5.582;2023-11-19T04:56:47;33.77;;;4.53;;
12986;SDS011;58897;51.960;5.582;2023-11-19T04:59:14;33.17;;;4.40;;
12986;SDS011;58897;51.960;5.582;2023-11-19T05:01:40;34.10;;;5.00;;
12986;SDS011;58897;51.960;5.582;2023-11-19T05:04:07;29.10;;;4.90;;
12986;SDS011;58897;51.960;5.582;2023-11-19T05:06:34;35.97;;;5.20;;
12986;SDS011;58897;51.960;5.582;2023-11-19T05:09:01;33.83;;;4.53;;
12986;SDS011;58897;51.960;5.582;2023-11-19T05:11:35;36.90;;;5.73;;
12986;SDS011;58897;51.960;5.582;2023-11-19T05:14:05;38.20;;;3.93;;
12986;SDS011;58897;51.960;5.582;2023-11-19T05:16:35;37.83;;;5.13;;
12986;SDS011;58897;51.960;5.582;2023-11-19T05:19:04;35.50;;;4.50;;
12986;SDS011;58897;51.960;5.582;2023-11-19T05:21:31;30.63;;;4.13;;
12986;SDS011;58897;51.960;5.582;2023-11-19T05:23:58;35.33;;;5.63;;
12986;SDS011;58897;51.960;5.582;2023-11-19T05:26:25;27.87;;;4.00;;
12986;SDS011;58897;51.960;5.582;2023-11-19T05:28:52;22.30;;;4.17;;
12986;SDS011;58897;51.960;5.582;2023-11-19T05:31:18;34.93;;;4.27;;
12986;SDS011;58897;51.960;5.582;2023-11-19T05:33:45;23.10;;;4.00;;
12986;SDS011;58897;51.960;5.582;2023-11-19T05:36:12;23.50;;;4.73;;
12986;SDS011;58897;51.960;5.582;2023-11-19T05:38:39;34.37;;;5.90;;
12986;SDS011;58897;51.960;5.582;2023-11-19T05:41:06;29.60;;;4.83;;
12986;SDS011;58897;51.960;5.582;2023-11-19T05:43:33;40.70;;;6.23;;
12986;SDS011;58897;51.960;5.582;2023-11-19T05:46:02;26.40;;;3.47;;
12986;SDS011;58897;51.960;5.582;2023-11-19T05:48:28;43.23;;;4.80;;
12986;SDS011;58897;51.960;5.582;2023-11-19T05:50:55;42.23;;;5.23;;
12986;SDS011;58897;51.960;5.582;2023-11-19T05:53:22;35.60;;;4.37;;
12986;SDS011;58897;51.960;5.582;2023-11-19T05:55:49;32.63;;;4.37;;
12986;SDS011;58897;51.960;5.582;2023-11-19T05:58:24;40.13;;;5.17;;
12986;SDS011;58897;51.960;5.582;2023-11-19T06:00:55;28.50;;;4.73;;
12986;SDS011;58897;51.960;5.582;2023-11-19T06:03:22;29.30;;;4.23;;
12986;SDS011;58897;51.960;5.582;2023-11-19T06:05:49;38.57;;;4.90;;
12986;SDS011;58897;51.960;5.582;2023-11-19T06:08:16;29.77;;;4.10;;
12986;SDS011;58897;51.960;5.582;2023-11-19T06:10:43;28.47;;;4.13;;
12986;SDS011;58897;51.960;5.582;2023-11-19T06:13:13;37.27;;;4.30;;
12986;SDS011;58897;51.960;5.582;2023-11-19T06:15:44;41.77;;;5.43;;
12986;SDS011;58897;51.960;5.582;2023-11-19T06:18:11;35.17;;;4.90;;
12986;SDS011;58897;51.960;5.582;2023-11-19T06:20:38;39.70;;;4.87;;
12986;SDS011;58897;51.960;5.582;2023-11-19T06:23:09;31.43;;;4.97;;
12986;SDS011;58897;51.960;5.582;2023-11-19T06:25:36;37.60;;;5.47;;
12986;SDS011;58897;51.960;5.582;2023-11-19T06:28:02;27.97;;;4.47;;
12986;SDS011;58897;51.960;5.582;2023-11-19T06:30:29;39.13;;;4.47;;
12986;SDS011;58897;51.960;5.582;2023-11-19T06:32:58;32.43;;;4.97;;
12986;SDS011;58897;51.960;5.582;2023-11-19T06:35:26;40.03;;;4.90;;
12986;SDS011;58897;51.960;5.582;2023-11-19T06:37:53;31.17;;;5.90;;
12986;SDS011;58897;51.960;5.582;2023-11-19T06:40:21;29.07;;;5.00;;
12986;SDS011;58897;51.960;5.582;2023-11-19T06:42:47;23.43;;;4.70;;
12986;SDS011;58897;51.960;5.582;2023-11-19T06:45:14;26.03;;;4.33;;
12986;SDS011;58897;51.960;5.582;2023-11-19T06:47:43;43.13;;;6.60;;
12986;SDS011;58897;51.960;5.582;2023-11-19T06:50:09;27.80;;;3.80;;
12986;SDS011;58897;51.960;5.582;2023-11-19T06:52:38;34.30;;;4.47;;
12986;SDS011;58897;51.960;5.582;2023-11-19T06:55:06;31.20;;;4.60;;
12986;SDS011;58897;51.960;5.582;2023-11-19T06:57:34;24.77;;;4.33;;
12986;SDS011;58897;51.960;5.582;2023-11-19T07:00:01;30.93;;;4.10;;
12986;SDS011;58897;51.960;5.582;2023-11-19T07:02:27;27.33;;;4.23;;
12986;SDS011;58897;51.960;5.582;2023-11-19T07:04:54;30.37;;;4.77;;
12986;SDS011;58897;51.960;5.582;2023-11-19T07:07:21;31.17;;;4.67;;
12986;SDS011;58897;51.960;5.582;2023-11-19T07:09:47;35.60;;;5.17;;
12986;SDS011;58897;51.960;5.582;2023-11-19T07:12:19;28.93;;;4.10;;
12986;SDS011;58897;51.960;5.582;2023-11-19T07:14:46;41.87;;;5.90;;
12986;SDS011;58897;51.960;5.582;2023-11-19T07:17:15;34.37;;;5.60;;
12986;SDS011;58897;51.960;5.582;2023-11-19T07:19:43;24.47;;;5.53;;
12986;SDS011;58897;51.960;5.582;2023-11-19T07:22:10;42.17;;;4.70;;
12986;SDS011;58897;51.960;5.582;2023-11-19T07:24:40;35.33;;;5.10;;
12986;SDS011;58897;51.960;5.582;2023-11-19T07:27:07;36.07;;;5.63;;
12986;SDS011;58897;51.960;5.582;2023-11-19T07:29:35;24.10;;;3.97;;
12986;SDS011;58897;51.960;5.582;2023-11-19T07:32:04;29.03;;;5.93;;
12986;SDS011;58897;51.960;5.582;2023-11-19T07:34:31;41.43;;;5.83;;
12986;SDS011;58897;51.960;5.582;2023-11-19T07:36:57;32.00;;;5.07;;
12986;SDS011;58897;51.960;5.582;2023-11-19T07:39:28;29.60;;;4.43;;
12986;SDS011;58897;51.960;5.582;2023-11-19T07:41:55;34.77;;;5.17;;
12986;SDS011;58897;51.960;5.582;2023-11-19T07:44:27;25.70;;;5.27;;
12986;SDS011;58897;51.960;5.582;2023-11-19T07:46:56;38.70;;;6.33;;
12986;SDS011;58897;51.960;5.582;2023-11-19T07:49:23;33.43;;;5.60;;
12986;SDS011;58897;51.960;5.582;2023-11-19T07:51:50;37.40;;;6.47;;
12986;SDS011;58897;51.960;5.582;2023-11-19T07:54:16;42.50;;;5.83;;
12986;SDS011;58897;51.960;5.582;2023-11-19T07:56:43;29.57;;;4.83;;
12986;SDS011;58897;51.960;5.582;2023-11-19T07:59:10;27.50;;;4.27;;
12986;SDS011;58897;51.960;5.582;2023-11-19T08:01:37;20.87;;;3.40;;
12986;SDS011;58897;51.960;5.582;2023-11-19T08:04:04;25.10;;;4.47;;
12986;SDS011;58897;51.960;5.582;2023-11-19T08:06:31;40.47;;;4.20;;
12986;SDS011;58897;51.960;5.582;2023-11-19T08:08:57;38.23;;;4.70;;
12986;SDS011;58897;51.960;5.582;2023-11-19T08:11:26;33.90;;;5.00;;
12986;SDS011;58897;51.960;5.582;2023-11-19T08:13:52;34.40;;;6.07;;
12986;SDS011;58897;51.960;5.582;2023-11-19T08:16:19;34.03;;;5.77;;
12986;SDS011;58897;51.960;5.582;2023-11-19T08:18:46;38.53;;;5.40;;
12986;SDS011;58897;51.960;5.582;2023-11-19T08:21:16;39.07;;;5.43;;
12986;SDS011;58897;51.960;5.582;2023-11-19T08:23:43;27.10;;;4.93;;
12986;SDS011;58897;51.960;5.582;2023-11-19T08:26:10;31.87;;;4.80;;
12986;SDS011;58897;51.960;5.582;2023-11-19T08:28:37;25.07;;;4.77;;
12986;SDS011;58897;51.960;5.582;2023-11-19T08:31:04;29.43;;;4.67;;
12986;SDS011;58897;51.960;5.582;2023-11-19T08:33:31;34.63;;;6.00;;
12986;SDS011;58897;51.960;5.582;2023-11-19T08:35:58;34.13;;;5.67;;
12986;SDS011;58897;51.960;5.582;2023-11-19T08:38:25;25.13;;;5.10;;
12986;SDS011;58897;51.960;5.582;2023-11-19T08:40:54;26.40;;;4.63;;
12986;SDS011;58897;51.960;5.582;2023-11-19T08:43:26;33.30;;;5.47;;
12986;SDS011;58897;51.960;5.582;2023-11-19T08:45:54;33.17;;;4.93;;
12986;SDS011;58897;51.960;5.582;2023-11-19T08:48:20;21.13;;;4.30;;
12986;SDS011;58897;51.960;5.582;2023-11-19T08:50:47;29.23;;;5.57;;
12986;SDS011;58897;51.960;5.582;2023-11-19T08:53:14;24.70;;;3.93;;
12986;SDS011;58897;51.960;5.582;2023-11-19T08:55:41;33.23;;;5.03;;
12986;SDS011;58897;51.960;5.582;2023-11-19T08:58:08;24.07;;;3.87;;
12986;SDS011;58897;51.960;5.582;2023-11-19T09:00:35;31.30;;;6.03;;
12986;SDS011;58897;51.960;5.582;2023-11-19T09:03:01;33.73;;;4.97;;
12986;SDS011;58897;51.960;5.582;2023-11-19T09:05:28;24.40;;;4.37;;
12986;SDS011;58897;51.960;5.582;2023-11-19T09:07:55;24.33;;;3.97;;
12986;SDS011;58897;51.960;5.582;2023-11-19T09:10:21;23.77;;;4.17;;
12986;SDS011;58897;51.960;5.582;2023-11-19T09:12:48;28.53;;;4.67;;
12986;SDS011;58897;51.960;5.582;2023-11-19T09:15:14;29.43;;;5.90;;
12986;SDS011;58897;51.960;5.582;2023-11-19T09:17:41;21.30;;;3.97;;
12986;SDS011;58897;51.960;5.582;2023-11-19T09:20:08;27.23;;;4.70;;
12986;SDS011;58897;51.960;5.582;2023-11-19T09:22:38;21.57;;;4.93;;
12986;SDS011;58897;51.960;5.582;2023-11-19T09:25:05;29.43;;;5.30;;
12986;SDS011;58897;51.960;5.582;2023-11-19T09:27:36;27.60;;;4.53;;
12986;SDS011;58897;51.960;5.582;2023-11-19T09:30:04;29.63;;;5.77;;
12986;SDS011;58897;51.960;5.582;2023-11-19T09:32:31;22.90;;;4.50;;
12986;SDS011;58897;51.960;5.582;2023-11-19T09:34:58;33.37;;;5.87;;
12986;SDS011;58897;51.960;5.582;2023-11-19T09:37:24;26.60;;;3.63;;
12986;SDS011;58897;51.960;5.582;2023-11-19T09:39:51;21.30;;;3.90;;
12986;SDS011;58897;51.960;5.582;2023-11-19T09:42:17;24.77;;;4.50;;
12986;SDS011;58897;51.960;5.582;2023-11-19T09:44:45;23.13;;;4.10;;
12986;SDS011;58897;51.960;5.582;2023-11-19T09:47:17;28.10;;;4.30;;
12986;SDS011;58897;51.960;5.582;2023-11-19T09:49:46;29.37;;;4.93;;
12986;SDS011;58897;51.960;5.582;2023-11-19T09:52:15;26.83;;;4.57;;
12986;SDS011;58897;51.960;5.582;2023-11-19T09:54:42;22.97;;;4.60;;
12986;SDS011;58897;51.960;5.582;2023-11-19T09:57:08;28.53;;;4.90;;
12986;SDS011;58897;51.960;5.582;2023-11-19T09:59:39;18.20;;;3.90;;
12986;SDS011;58897;51.960;5.582;2023-11-19T10:02:07;23.67;;;5.00;;
12986;SDS011;58897;51.960;5.582;2023-11-19T10:04:35;24.07;;;4.53;;
12986;SDS011;58897;51.960;5.582;2023-11-19T10:07:03;21.93;;;3.83;;
12986;SDS011;58897;51.960;5.582;2023-11-19T10:09:30;23.83;;;4.53;;
12986;SDS011;58897;51.960;5.582;2023-11-19T10:11:57;22.83;;;4.70;;
12986;SDS011;58897;51.960;5.582;2023-11-19T10:14:23;24.90;;;5.57;;
12986;SDS011;58897;51.960;5.582;2023-11-19T10:16:50;27.83;;;4.60;;
12986;SDS011;58897;51.960;5.582;2023-11-19T10:19:20;13.43;;;3.43;;
12986;SDS011;58897;51.960;5.582;2023-11-19T10:21:47;21.67;;;3.23;;
12986;SDS011;58897;51.960;5.582;2023-11-19T10:24:14;18.33;;;4.03;;
12986;SDS011;58897;51.960;5.582;2023-11-19T10:26:56;26.73;;;5.10;;
12986;SDS011;58897;51.960;5.582;2023-11-19T10:29:26;22.70;;;3.97;;
12986;SDS011;58897;51.960;5.582;2023-11-19T10:31:57;16.60;;;3.40;;
12986;SDS011;58897;51.960;5.582;2023-11-19T10:34:44;20.47;;;3.87;;
12986;SDS011;58897;51.960;5.582;2023-11-19T10:37:28;27.90;;;4.33;;
12986;SDS011;58897;51.960;5.582;2023-11-19T10:39:59;30.13;;;4.97;;
12986;SDS011;58897;51.960;5.582;2023-11-19T10:42:26;18.57;;;4.43;;
12986;SDS011;58897;51.960;5.582;2023-11-19T10:44:52;20.93;;;4.63;;
12986;SDS011;58897;51.960;5.582;2023-11-19T10:47:19;27.90;;;4.30;;
12986;SDS011;58897;51.960;5.582;2023-11-19T10:50:03;19.27;;;4.30;;
12986;SDS011;58897;51.960;5.582;2023-11-19T10:52:31;18.80;;;4.70;;
12986;SDS011;58897;51.960;5.582;2023-11-19T10:54:58;26.00;;;5.17;;
12986;SDS011;58897;51.960;5.582;2023-11-19T10:57:34;13.00;;;3.33;;
12986;SDS011;58897;51.960;5.582;2023-11-19T11:00:06;23.73;;;5.13;;
12986;SDS011;58897;51.960;5.582;2023-11-19T11:02:40;19.17;;;3.87;;
12986;SDS011;58897;51.960;5.582;2023-11-19T11:05:12;30.07;;;4.97;;
12986;SDS011;58897;51.960;5.582;2023-11-19T11:07:40;23.57;;;5.50;;
12986;SDS011;58897;51.960;5.582;2023-11-19T11:10:09;21.27;;;4.27;;
12986;SDS011;58897;51.960;5.582;2023-11-19T11:12:42;19.17;;;3.30;;
12986;SDS011;58897;51.960;5.582;2023-11-19T11:15:10;20.67;;;4.47;;
12986;SDS011;58897;51.960;5.582;2023-11-19T11:17:42;24.87;;;5.30;;
12986;SDS011;58897;51.960;5.582;2023-11-19T11:20:13;21.77;;;4.67;;
12986;SDS011;58897;51.960;5.582;2023-11-19T11:23:15;20.00;;;4.43;;
12986;SDS011;58897;51.960;5.582;2023-11-19T11:31:08;28.70;;;4.43;;
12986;SDS011;58897;51.960;5.582;2023-11-19T11:36:43;18.87;;;4.87;;
12986;SDS011;58897;51.960;5.582;2023-11-19T11:39:34;22.67;;;4.63;;
12986;SDS011;58897;51.960;5.582;2023-11-19T11:42:30;17.23;;;3.70;;
12986;SDS011;58897;51.960;5.582;2023-11-19T11:48:21;21.93;;;4.03;;
12986;SDS011;58897;51.960;5.582;2023-11-19T11:50:22;31.03;;;5.60;;
12986;SDS011;58897;51.960;5.582;2023-11-19T11:57:52;14.77;;;3.43;;
12986;SDS011;58897;51.960;5.582;2023-11-19T12:00:22;19.30;;;4.37;;
12986;SDS011;58897;51.960;5.582;2023-11-19T12:03:10;22.30;;;4.73;;
12986;SDS011;58897;51.960;5.582;2023-11-19T12:05:41;22.57;;;3.77;;
12986;SDS011;58897;51.960;5.582;2023-11-19T12:08:13;16.60;;;3.67;;
12986;SDS011;58897;51.960;5.582;2023-11-19T12:10:45;17.77;;;3.90;;
12986;SDS011;58897;51.960;5.582;2023-11-19T12:13:16;19.83;;;4.50;;
12986;SDS011;58897;51.960;5.582;2023-11-19T12:18:27;13.70;;;3.17;;
12986;SDS011;58897;51.960;5.582;2023-11-19T12:20:59;10.70;;;2.90;;
12986;SDS011;58897;51.960;5.582;2023-11-19T12:23:27;14.10;;;3.40;;
12986;SDS011;58897;51.960;5.582;2023-11-19T12:25:56;16.73;;;3.63;;
12986;SDS011;58897;51.960;5.582;2023-11-19T12:28:23;15.53;;;4.03;;
12986;SDS011;58897;51.960;5.582;2023-11-19T12:30:54;18.97;;;3.20;;
12986;SDS011;58897;51.960;5.582;2023-11-19T12:33:37;18.67;;;3.93;;
12986;SDS011;58897;51.960;5.582;2023-11-19T12:36:04;11.83;;;2.67;;
12986;SDS011;58897;51.960;5.582;2023-11-19T12:38:32;17.10;;;3.13;;
12986;SDS011;58897;51.960;5.582;2023-11-19T12:41:02;11.07;;;2.57;;
12986;SDS011;58897;51.960;5.582;2023-11-19T12:43:41;24.33;;;4.97;;
12986;SDS011;58897;51.960;5.582;2023-11-19T12:46:21;18.40;;;3.83;;
12986;SDS011;58897;51.960;5.582;2023-11-19T12:48:52;15.23;;;2.73;;
12986;SDS011;58897;51.960;5.582;2023-11-19T12:51:19;15.97;;;4.20;;
12986;SDS011;58897;51.960;5.582;2023-11-19T12:53:50;12.87;;;3.60;;
12986;SDS011;58897;51.960;5.582;2023-11-19T12:56:21;15.17;;;4.50;;
12986;SDS011;58897;51.960;5.582;2023-11-19T12:58:48;18.30;;;3.60;;
12986;SDS011;58897;51.960;5.582;2023-11-19T13:01:17;21.27;;;4.53;;
12986;SDS011;58897;51.960;5.582;2023-11-19T13:03:45;23.67;;;4.73;;
12986;SDS011;58897;51.960;5.582;2023-11-19T13:06:13;18.77;;;3.97;;
12986;SDS011;58897;51.960;5.582;2023-11-19T13:08:43;18.07;;;3.33;;
12986;SDS011;58897;51.960;5.582;2023-11-19T13:11:11;19.20;;;3.60;;
12986;SDS011;58897;51.960;5.582;2023-11-19T13:13:55;19.13;;;4.40;;
12986;SDS011;58897;51.960;5.582;2023-11-19T13:16:26;18.20;;;3.30;;
12986;SDS011;58897;51.960;5.582;2023-11-19T13:18:54;14.97;;;3.10;;
12986;SDS011;58897;51.960;5.582;2023-11-19T13:21:21;18.03;;;3.07;;
12986;SDS011;58897;51.960;5.582;2023-11-19T13:23:47;28.33;;;4.00;;
12986;SDS011;58897;51.960;5.582;2023-11-19T13:26:14;22.77;;;3.80;;
12986;SDS011;58897;51.960;5.582;2023-11-19T13:28:46;19.20;;;3.27;;
12986;SDS011;58897;51.960;5.582;2023-11-19T13:31:16;19.93;;;4.20;;
12986;SDS011;58897;51.960;5.582;2023-11-19T13:33:46;27.10;;;5.60;;
12986;SDS011;58897;51.960;5.582;2023-11-19T13:36:13;21.37;;;3.70;;
12986;SDS011;58897;51.960;5.582;2023-11-19T13:38:42;15.53;;;3.03;;
12986;SDS011;58897;51.960;5.582;2023-11-19T13:41:11;15.47;;;3.70;;
12986;SDS011;58897;51.960;5.582;2023-11-19T13:43:40;18.77;;;3.60;;
12986;SDS011;58897;51.960;5.582;2023-11-19T13:46:06;15.17;;;3.17;;
12986;SDS011;58897;51.960;5.582;2023-11-19T13:48:37;18.00;;;3.63;;
12986;SDS011;58897;51.960;5.582;2023-11-19T13:51:03;13.17;;;2.70;;
12986;SDS011;58897;51.960;5.582;2023-11-19T13:53:31;20.03;;;4.17;;
12986;SDS011;58897;51.960;5.582;2023-11-19T13:56:16;19.77;;;3.87;;
12986;SDS011;58897;51.960;5.582;2023-11-19T13:58:43;15.87;;;3.00;;
12986;SDS011;58897;51.960;5.582;2023-11-19T14:01:09;16.13;;;3.13;;
12986;SDS011;58897;51.960;5.582;2023-11-19T14:03:39;26.97;;;5.37;;
12986;SDS011;58897;51.960;5.582;2023-11-19T14:06:09;19.30;;;3.77;;
12986;SDS011;58897;51.960;5.582;2023-11-19T14:08:36;25.77;;;3.53;;
12986;SDS011;58897;51.960;5.582;2023-11-19T14:11:04;16.43;;;3.27;;
12986;SDS011;58897;51.960;5.582;2023-11-19T14:13:34;24.40;;;6.03;;
12986;SDS011;58897;51.960;5.582;2023-11-19T14:16:00;15.20;;;3.67;;
12986;SDS011;58897;51.960;5.582;2023-11-19T14:18:27;22.17;;;4.40;;
12986;SDS011;58897;51.960;5.582;2023-11-19T14:20:54;22.83;;;3.83;;
12986;SDS011;58897;51.960;5.582;2023-11-19T14:23:21;16.10;;;3.83;;
12986;SDS011;58897;51.960;5.582;2023-11-19T14:25:47;14.60;;;3.60;;
12986;SDS011;58897;51.960;5.582;2023-11-19T14:28:15;18.10;;;4.67;;
12986;SDS011;58897;51.960;5.582;2023-11-19T14:30:42;18.63;;;3.50;;
12986;SDS011;58897;51.960;5.582;2023-11-19T14:33:08;20.60;;;4.27;;
12986;SDS011;58897;51.960;5.582;2023-11-19T14:35:35;17.30;;;3.60;;
12986;SDS011;58897;51.960;5.582;2023-11-19T14:38:02;18.13;;;3.60;;
12986;SDS011;58897;51.960;5.582;2023-11-19T14:40:31;17.27;;;3.27;;
12986;SDS011;58897;51.960;5.582;2023-11-19T14:43:01;17.90;;;3.37;;
12986;SDS011;58897;51.960;5.582;2023-11-19T14:45:31;18.47;;;4.00;;
12986;SDS011;58897;51.960;5.582;2023-11-19T14:48:09;18.37;;;3.57;;
12986;SDS011;58897;51.960;5.582;2023-11-19T14:50:36;10.33;;;2.77;;
12986;SDS011;58897;51.960;5.582;2023-11-19T14:53:03;13.73;;;2.97;;
12986;SDS011;58897;51.960;5.582;2023-11-19T14:55:30;27.07;;;4.27;;
12986;SDS011;58897;51.960;5.582;2023-11-19T14:57:56;23.20;;;4.03;;
12986;SDS011;58897;51.960;5.582;2023-11-19T15:00:34;18.07;;;4.03;;